Time;durP1;ratioP1;P1;durP2;ratioP2;P2;SDS_P1;SDS_P2;PMS_P1;PMS_P2;Temp;Humidity;BMP_temperature;BMP_pressure;BME280_temperature;BME280_humidity;BME280_pressure;Samples;Min_cycle;Max_cycle;Signal;HPM_P1;HPM_P2
2021/11/29 00:01:16;;;;;;;12.30;8.18;;;4.40;99.90;;;3.78;100.00;100632.41;4154116;28;20032;-72
2021/11/29 00:03:19;;;;;;;19.27;10.05;;;4.40;99.90;;;3.89;100.00;100639.41;4160711;28;20517;-72
2021/11/29 00:05:22;;;;;;;24.80;12.55;;;4.40;99.90;;;3.85;100.00;100643.22;4149550;28;20030;-72
2021/11/29 00:07:23;;;;;;;21.48;11.90;;;4.50;99.90;;;3.88;100.00;100641.19;4183127;28;20028;-72
2021/11/29 00:09:24;;;;;;;13.65;8.75;;;4.50;99.90;;;3.98;100.00;100638.72;4142017;28;20026;-72
2021/11/29 00:11:25;;;;;;;12.63;8.95;;;4.60;99.90;;;3.98;100.00;100638.72;4154029;28;20026;-72
2021/11/29 00:13:26;;;;;;;14.52;9.52;;;4.60;99.90;;;4.07;100.00;100634.56;4136626;28;20062;-72
2021/11/29 00:15:27;;;;;;;13.63;9.27;;;4.60;99.90;;;3.97;100.00;100629.25;4153809;28;20025;-72
2021/11/29 00:17:28;;;;;;;18.00;11.27;;;4.60;99.90;;;3.96;100.00;100631.94;4153958;28;20030;-72
2021/11/29 00:19:29;;;;;;;19.73;11.65;;;4.60;99.90;;;3.98;100.00;100628.28;4152592;28;20088;-72
2021/11/29 00:21:32;;;;;;;14.15;10.15;;;4.60;99.90;;;4.05;100.00;100623.41;4153817;28;20029;-72
2021/11/29 00:23:33;;;;;;;15.50;10.10;;;4.70;99.90;;;4.12;100.00;100633.25;4153393;28;20021;-72
2021/11/29 00:25:34;;;;;;;15.52;9.98;;;4.70;99.90;;;4.15;100.00;100633.03;4185563;28;20037;-72
2021/11/29 00:27:38;;;;;;;15.35;9.98;;;4.80;99.90;;;4.16;100.00;100629.47;4153742;28;20117;-72
2021/11/29 00:29:39;;;;;;;13.10;8.40;;;4.80;99.90;;;4.34;100.00;100630.66;4152344;28;20056;-72
2021/11/29 00:31:40;;;;;;;10.38;6.97;;;4.90;99.90;;;4.19;100.00;100625.78;4184205;28;20056;-70
2021/11/29 00:33:42;;;;;;;11.30;7.97;;;4.90;99.90;;;4.33;100.00;100626.38;4152519;28;20065;-70
2021/11/29 00:35:44;;;;;;;11.77;7.30;;;4.90;99.90;;;4.22;100.00;100636.00;4146086;28;20108;-70
2021/11/29 00:37:45;;;;;;;11.15;8.13;;;4.90;99.90;;;4.28;100.00;100644.19;4153414;28;20088;-70
2021/11/29 00:39:46;;;;;;;8.68;6.63;;;4.90;99.90;;;4.40;100.00;100643.25;4153170;28;20028;-70
2021/11/29 00:41:46;;;;;;;11.43;5.80;;;4.90;99.90;;;4.52;100.00;100646.69;4153854;28;20030;-70
2021/11/29 00:43:47;;;;;;;8.80;5.95;;;5.00;99.90;;;4.59;100.00;100649.66;4153356;28;20029;-70
2021/11/29 00:45:48;;;;;;;8.63;5.88;;;5.10;99.90;;;4.56;100.00;100650.72;4152537;28;20033;-70
2021/11/29 00:47:50;;;;;;;9.50;5.10;;;5.10;99.90;;;4.52;100.00;100646.69;4153578;28;20030;-70
2021/11/29 00:49:51;;;;;;;12.70;5.63;;;5.10;99.90;;;4.56;100.00;100637.66;4152275;28;20156;-70
2021/11/29 00:51:52;;;;;;;6.47;5.10;;;5.20;99.90;;;4.52;100.00;100640.63;4168498;28;20025;-70
2021/11/29 00:53:53;;;;;;;9.43;5.32;;;5.20;99.90;;;4.55;100.00;100645.59;4151942;28;20049;-70
2021/11/29 00:55:54;;;;;;;8.80;5.38;;;5.20;99.90;;;4.52;100.00;100638.00;4168313;28;20415;-70
2021/11/29 00:57:54;;;;;;;9.40;5.47;;;5.20;99.90;;;4.59;100.00;100634.81;4168472;28;20143;-70
2021/11/29 00:59:55;;;;;;;11.50;5.95;;;5.30;99.90;;;4.70;100.00;100632.19;4151958;28;20026;-70
2021/11/29 01:01:56;;;;;;;7.68;4.80;;;5.30;99.90;;;4.72;100.00;100635.50;4152020;28;20493;-70
2021/11/29 01:03:57;;;;;;;7.28;5.05;;;5.30;99.90;;;4.72;100.00;100634.69;4151664;28;20046;-70
2021/11/29 01:05:58;;;;;;;7.13;5.00;;;5.30;99.90;;;4.64;100.00;100631.81;4135659;28;20093;-70
2021/11/29 01:07:59;;;;;;;10.38;4.85;;;5.40;99.90;;;4.56;100.00;100652.50;4145812;28;20026;-70
2021/11/29 01:10:01;;;;;;;8.60;5.07;;;5.40;99.90;;;4.80;100.00;100647.97;4147289;28;20116;-70
2021/11/29 01:12:04;;;;;;;4.47;3.75;;;5.40;99.90;;;4.78;100.00;100640.25;4151665;28;20439;-71
2021/11/29 01:14:06;;;;;;;7.28;4.50;;;5.50;99.90;;;4.92;100.00;100639.16;4151927;28;20042;-70
2021/11/29 01:16:07;;;;;;;6.63;3.97;;;5.50;99.90;;;4.88;100.00;100622.03;4153033;28;20026;-70
2021/11/29 01:18:11;;;;;;;5.78;4.03;;;5.60;99.90;;;4.90;100.00;100626.19;4151874;28;20104;-71
2021/11/29 01:20:12;;;;;;;5.55;3.72;;;5.60;99.90;;;4.87;100.00;100630.84;4167784;28;20025;-72
2021/11/29 01:22:13;;;;;;;5.90;3.65;;;5.50;99.90;;;4.73;100.00;100621.50;4152747;28;20037;-72
2021/11/29 01:24:14;;;;;;;6.18;3.67;;;5.50;99.90;;;4.62;100.00;100625.91;4151537;28;20030;-72
2021/11/29 01:26:15;;;;;;;5.90;3.00;;;5.40;99.90;;;4.51;100.00;100620.69;4168018;28;20377;-72
2021/11/29 01:28:17;;;;;;;6.72;3.25;;;5.40;99.90;;;4.52;100.00;100622.34;4151596;28;20078;-72
2021/11/29 01:30:18;;;;;;;4.70;3.25;;;5.40;99.90;;;4.71;100.00;100626.00;4140263;28;20030;-72
2021/11/29 01:32:19;;;;;;;4.35;3.08;;;5.40;99.90;;;4.81;100.00;100628.69;4151677;28;20512;-72
2021/11/29 01:34:20;;;;;;;4.32;2.85;;;5.40;99.90;;;5.02;100.00;100625.22;4151547;28;20029;-72
2021/11/29 01:36:21;;;;;;;6.72;3.03;;;5.50;99.90;;;5.16;100.00;100629.34;4151551;28;20042;-72
2021/11/29 01:38:23;;;;;;;4.93;3.33;;;5.70;99.90;;;5.13;100.00;100631.38;4152574;28;20093;-72
2021/11/29 01:40:24;;;;;;;5.82;3.30;;;5.70;99.90;;;5.06;100.00;100638.88;4135170;28;20030;-72
2021/11/29 01:42:25;;;;;;;4.95;3.40;;;5.70;99.90;;;5.33;100.00;100641.88;4135412;28;20445;-72
2021/11/29 01:44:26;;;;;;;4.97;3.55;;;5.80;99.90;;;5.17;100.00;100638.81;4151240;28;20034;-72
2021/11/29 01:46:27;;;;;;;4.85;3.17;;;5.90;99.90;;;5.15;100.00;100638.13;4152656;28;20067;-72
2021/11/29 01:48:28;;;;;;;4.35;3.40;;;5.80;99.90;;;5.17;100.00;100645.88;4151449;28;20030;-72
2021/11/29 01:50:30;;;;;;;4.43;3.55;;;5.80;99.90;;;5.09;100.00;100643.03;4150851;28;20026;-72
2021/11/29 01:52:31;;;;;;;4.80;3.40;;;5.70;99.90;;;5.07;100.00;100639.72;4151321;28;20057;-72
2021/11/29 01:54:32;;;;;;;6.88;3.90;;;5.70;99.90;;;5.07;100.00;100640.53;4151141;28;20025;-72
2021/11/29 01:56:32;;;;;;;4.85;3.90;;;5.70;99.90;;;5.01;100.00;100646.25;4151300;28;20537;-72
2021/11/29 01:58:38;;;;;;;9.48;4.28;;;5.70;99.90;;;4.76;100.00;100663.06;4167638;28;20053;-72
2021/11/29 02:00:46;;;;;;;7.20;4.32;;;5.60;99.90;;;4.77;100.00;100663.88;4151256;28;20029;-72
2021/11/29 02:02:52;;;;;;;5.45;4.93;;;5.60;99.90;;;4.62;100.00;100659.88;4152133;28;20124;-72
2021/11/29 02:04:58;;;;;;;5.35;4.70;;;5.50;99.90;;;4.69;100.00;100666.28;4151149;28;20116;-73
2021/11/29 02:06:59;;;;;;;5.75;4.43;;;5.50;99.90;;;4.52;100.00;100664.97;4151196;28;20026;-72
2021/11/29 02:09:03;;;;;;;7.20;4.40;;;5.40;99.90;;;4.34;100.00;100666.38;4138765;28;20069;-72
2021/11/29 02:11:05;;;;;;;7.60;5.70;;;4.10;99.90;;;4.35;100.00;100673.28;4151315;28;20026;-72
2021/11/29 02:13:07;;;;;;;6.40;4.80;;;5.20;99.90;;;4.48;100.00;100674.81;4151230;28;20065;-72
2021/11/29 02:15:11;;;;;;;7.10;4.32;;;5.10;99.90;;;4.31;100.00;100672.69;4151174;28;20038;-72
2021/11/29 02:17:12;;;;;;;;;;;5.00;99.90;;;4.24;100.00;100663.66;4167763;28;20022;-72
2021/11/29 02:19:13;;;;;;;7.10;4.53;;;4.90;99.90;;;4.38;100.00;100673.06;4152402;28;20315;-72
2021/11/29 02:21:32;;;;;;;6.80;4.75;;;5.80;99.90;;;4.25;100.00;100669.72;4151027;28;20030;-72
2021/11/29 02:23:37;;;;;;;7.80;4.45;;;4.90;99.90;;;4.23;100.00;100672.44;4150709;28;20030;-72
2021/11/29 02:25:38;;;;;;;8.35;5.10;;;4.80;99.90;;;4.16;100.00;100679.06;4151008;28;20042;-72
2021/11/29 02:27:43;;;;;;;6.25;4.50;;;4.80;99.90;;;4.11;100.00;100669.94;4167355;28;20017;-72
2021/11/29 02:29:45;;;;;;;5.45;4.45;;;4.70;99.90;;;4.21;100.00;100676.13;4151154;28;20421;-72
2021/11/29 02:31:49;;;;;;;5.65;4.22;;;4.70;99.90;;;4.00;100.00;100673.38;4151590;28;20026;-72
2021/11/29 02:33:50;;;;;;;6.53;4.35;;;4.70;99.90;;;4.02;100.00;100666.25;4151089;28;20033;-72
2021/11/29 02:35:51;;;;;;;5.97;4.10;;;4.60;99.90;;;3.96;100.00;100674.53;4151031;28;20041;-72
2021/11/29 02:37:52;;;;;;;5.82;3.92;;;4.60;99.90;;;4.14;100.00;100673.16;4151243;28;20073;-72
2021/11/29 02:39:53;;;;;;;6.32;3.85;;;4.70;99.90;;;4.07;100.00;100666.72;4151913;28;20030;-72
2021/11/29 02:41:59;;;;;;;5.07;3.72;;;4.70;99.90;;;4.13;100.00;100675.84;4152046;28;20042;-72
2021/11/29 02:44:00;;;;;;;4.32;3.70;;;4.70;99.90;;;4.18;100.00;100671.94;4150977;28;20037;-72
2021/11/29 02:46:01;;;;;;;5.80;3.70;;;4.70;99.90;;;4.38;100.00;100673.06;4150859;28;20033;-72
2021/11/29 02:48:03;;;;;;;6.72;4.05;;;4.70;99.90;;;4.45;100.00;100662.00;4134680;28;20025;-72
2021/11/29 02:50:04;;;;;;;3.47;3.17;;;4.80;99.90;;;4.47;100.00;100672.34;4151049;28;20061;-72
2021/11/29 02:52:14;;;;;;;3.60;3.30;;;4.80;99.90;;;4.51;100.00;100671.13;4150885;28;20382;-72
2021/11/29 02:54:31;;;;;;;3.97;3.42;;;4.90;99.90;;;4.25;100.00;100674.94;4166890;28;20033;-72
2021/11/29 02:56:37;;;;;;;5.38;3.45;;;4.80;99.90;;;4.40;100.00;100674.59;4151035;28;20022;-72
2021/11/29 02:58:42;;;;;;;4.35;3.35;;;4.90;99.90;;;4.22;100.00;100678.59;4150877;28;20092;-72
2021/11/29 03:00:43;;;;;;;3.38;3.08;;;4.90;99.90;;;4.42;100.00;100684.94;4150646;28;20032;-72
2021/11/29 03:02:43;;;;;;;4.15;3.33;;;4.90;99.90;;;4.54;100.00;100685.75;4152494;28;20081;-72
2021/11/29 03:04:46;;;;;;;4.13;3.25;;;5.00;99.90;;;4.65;100.00;100681.38;4154994;28;20485;-72
2021/11/29 03:06:47;;;;;;;5.15;3.42;;;4.50;99.90;;;4.63;100.00;100693.69;4153835;28;20565;-72
2021/11/29 03:08:49;;;;;;;5.00;3.20;;;5.10;99.90;;;4.70;100.00;100683.59;4156353;28;20037;-72
2021/11/29 03:10:49;;;;;;;4.05;3.28;;;5.10;99.90;;;4.74;100.00;100696.31;4155050;28;20026;-72
2021/11/29 03:12:50;;;;;;;5.13;3.70;;;5.10;99.90;;;4.65;100.00;100696.19;4154989;28;20029;-72
2021/11/29 03:14:51;;;;;;;4.60;3.50;;;5.10;99.90;;;4.76;100.00;100698.78;4153678;28;20108;-72
2021/11/29 03:16:55;;;;;;;5.45;3.83;;;5.10;99.90;;;4.75;100.00;100711.03;4153522;28;20537;-72
2021/11/29 03:18:56;;;;;;;4.03;3.72;;;5.20;99.90;;;4.70;100.00;100712.34;4153612;28;20030;-72
2021/11/29 03:20:57;;;;;;;4.13;3.75;;;5.20;99.90;;;4.80;100.00;100710.69;4154819;28;20378;-72
2021/11/29 03:22:58;;;;;;;3.90;3.53;;;5.20;99.90;;;4.81;100.00;100713.16;4153387;28;20041;-72
2021/11/29 03:24:59;;;;;;;5.35;4.82;;;5.30;99.90;;;4.93;100.00;100719.22;4167256;28;20064;-72
2021/11/29 03:27:00;;;;;;;5.40;3.45;;;5.30;99.90;;;4.94;100.00;100726.94;4154804;28;20034;-72
2021/11/29 03:29:07;;;;;;;5.35;3.80;;;5.40;99.90;;;5.06;100.00;100738.22;4154708;28;20369;-72
2021/11/29 03:31:10;;;;;;;4.13;3.30;;;5.50;99.90;;;4.92;100.00;100730.63;4153260;28;20101;-72
2021/11/29 03:33:12;;;;;;;4.65;3.90;;;5.50;99.90;;;4.99;100.00;100734.41;4169510;28;20021;-72
2021/11/29 03:35:12;;;;;;;4.25;3.90;;;5.70;99.90;;;4.95;100.00;100735.63;4154586;28;20070;-72
2021/11/29 03:37:14;;;;;;;5.22;3.70;;;5.70;99.90;;;4.97;100.00;100733.72;4153352;28;20068;-72
2021/11/29 03:39:26;;;;;;;5.13;4.00;;;5.70;99.90;;;4.94;100.00;100723.50;4148653;28;20025;-72
2021/11/29 03:41:28;;;;;;;4.75;4.18;;;5.70;99.90;;;4.95;100.00;100728.63;4153110;28;20018;-72
2021/11/29 03:43:29;;;;;;;4.22;3.78;;;5.70;99.90;;;5.02;100.00;100736.78;4152907;28;20030;-72
2021/11/29 03:45:30;;;;;;;4.30;3.90;;;5.80;99.90;;;5.04;100.00;100732.28;4153233;28;20054;-72
2021/11/29 03:47:31;;;;;;;3.97;3.58;;;5.80;99.90;;;5.01;100.00;100735.16;4153217;28;20112;-72
2021/11/29 03:49:33;;;;;;;5.43;4.35;;;5.70;99.90;;;5.06;100.00;100742.59;4152982;28;20540;-72
2021/11/29 03:51:34;;;;;;;5.35;3.83;;;5.80;99.90;;;5.05;100.00;100739.16;4153006;28;20401;-72
2021/11/29 03:53:35;;;;;;;4.85;3.95;;;5.80;99.90;;;5.11;100.00;100740.47;4154083;28;20061;-72
2021/11/29 03:55:37;;;;;;;6.07;4.50;;;5.80;99.90;;;5.04;100.00;100737.50;4153043;28;20030;-72
2021/11/29 03:57:37;;;;;;;4.10;3.70;;;5.80;99.90;;;5.17;100.00;100750.47;4169323;28;20030;-72
2021/11/29 03:59:39;;;;;;;4.90;4.10;;;5.80;99.90;;;5.19;100.00;100744.16;4154361;28;20488;-72
2021/11/29 04:01:41;;;;;;;5.30;4.50;;;5.80;99.90;;;5.17;100.00;100746.03;4153061;28;20022;-72
2021/11/29 04:03:42;;;;;;;6.07;4.07;;;5.80;99.90;;;5.01;100.00;100756.06;4169235;28;20528;-72
2021/11/29 04:05:43;;;;;;;5.28;4.07;;;5.80;99.90;;;4.98;100.00;100756.28;4154025;28;20401;-72
2021/11/29 04:07:44;;;;;;;4.22;3.78;;;5.70;99.90;;;5.11;100.00;100770.03;4148819;28;20054;-72
2021/11/29 04:09:45;;;;;;;4.25;3.90;;;5.70;99.90;;;5.03;100.00;100772.44;4161078;28;20032;-72
2021/11/29 04:11:46;;;;;;;4.13;3.72;;;5.70;99.90;;;5.18;100.00;100784.31;4152679;28;20026;-72
2021/11/29 04:13:47;;;;;;;5.15;3.67;;;5.80;99.90;;;5.25;100.00;100780.28;4153397;28;20056;-72
2021/11/29 04:15:48;;;;;;;5.45;4.30;;;5.80;99.90;;;5.20;100.00;100774.56;4152809;28;20509;-72
2021/11/29 04:17:49;;;;;;;5.60;4.07;;;5.80;99.90;;;5.29;100.00;100780.84;4152727;28;20105;-72
2021/11/29 04:19:50;;;;;;;5.28;4.05;;;5.90;99.90;;;5.25;100.00;100782.06;4152859;28;20037;-72
2021/11/29 04:21:52;;;;;;;4.53;3.88;;;5.90;99.90;;;5.23;100.00;100784.78;4152372;28;20049;-72
2021/11/29 04:23:52;;;;;;;6.70;3.80;;;5.90;99.90;;;5.24;100.00;100788.22;4140344;28;20078;-72
2021/11/29 04:25:58;;;;;;;4.22;3.63;;;6.00;99.90;;;5.25;100.00;100782.88;4152528;28;20037;-72
2021/11/29 04:27:59;;;;;;;5.50;4.25;;;5.90;99.90;;;5.26;100.00;100795.00;4149138;28;20086;-72
2021/11/29 04:30:06;;;;;;;4.97;3.75;;;6.00;99.90;;;5.27;100.00;100801.06;4153608;28;20435;-72
2021/11/29 04:32:09;;;;;;;4.65;3.85;;;5.90;99.90;;;5.29;100.00;100796.53;4151954;28;20073;-72
2021/11/29 04:34:10;;;;;;;4.63;3.53;;;5.90;99.90;;;5.15;100.00;100797.63;4178383;28;20072;-72
2021/11/29 04:36:10;;;;;;;5.78;3.38;;;5.90;99.90;;;5.18;100.00;100793.94;4152454;28;20486;-72
2021/11/29 04:38:12;;;;;;;5.10;4.20;;;5.80;99.90;;;5.27;100.00;100808.91;4153039;28;20045;-72
2021/11/29 04:40:14;;;;;;;4.20;3.67;;;5.80;99.90;;;5.20;100.00;100803.31;4152417;28;20022;-72
2021/11/29 04:42:15;;;;;;;6.05;4.05;;;6.10;99.90;;;5.22;100.00;100806.66;4178341;28;20036;-72
2021/11/29 04:44:16;;;;;;;5.40;3.83;;;5.70;99.90;;;5.28;100.00;100805.34;4152272;28;20041;-72
2021/11/29 04:46:18;;;;;;;3.83;3.45;;;5.70;99.90;;;5.21;100.00;100794.53;4152202;28;20056;-72
2021/11/29 04:48:19;;;;;;;5.35;3.85;;;5.60;99.90;;;5.16;100.00;100801.09;4152337;28;20468;-72
2021/11/29 04:50:19;;;;;;;4.95;3.97;;;5.60;99.90;;;5.11;100.00;100793.56;4146348;28;20022;-72
2021/11/29 04:52:20;;;;;;;3.90;3.47;;;5.60;99.90;;;5.24;100.00;100801.31;4152157;28;20065;-72
2021/11/29 04:54:21;;;;;;;4.53;4.13;;;5.60;99.90;;;5.23;100.00;100802.25;4151543;28;20061;-72
2021/11/29 04:56:23;;;;;;;4.75;3.70;;;5.60;99.90;;;5.21;100.00;100801.53;4152378;28;20030;-72
2021/11/29 04:58:24;;;;;;;5.47;4.10;;;5.50;99.90;;;5.21;100.00;100804.16;4152188;28;20117;-72
2021/11/29 05:00:25;;;;;;;7.57;4.07;;;5.60;99.90;;;5.20;100.00;100807.72;4153321;28;20034;-71
2021/11/29 05:02:26;;;;;;;4.20;3.80;;;5.60;99.90;;;5.13;100.00;100804.78;4151586;28;20038;-72
2021/11/29 05:04:29;;;;;;;6.68;3.78;;;5.50;99.90;;;4.96;100.00;100800.00;4135559;28;20061;-72
2021/11/29 05:06:30;;;;;;;4.82;3.35;;;5.50;99.90;;;4.93;100.00;100815.91;4152113;28;20029;-72
2021/11/29 05:08:31;;;;;;;5.13;4.13;;;5.50;99.90;;;5.01;100.00;100819.63;4141351;28;20097;-72
2021/11/29 05:10:32;;;;;;;6.20;3.85;;;5.40;99.90;;;5.06;100.00;100828.88;4151464;28;20430;-72
2021/11/29 05:12:34;;;;;;;6.65;4.35;;;5.40;99.90;;;5.17;100.00;100834.94;4153105;28;20057;-72
2021/11/29 05:14:35;;;;;;;5.43;3.70;;;5.40;99.90;;;5.06;100.00;100826.25;4153025;28;20022;-72
2021/11/29 05:16:38;;;;;;;4.32;3.70;;;5.40;99.90;;;4.99;100.00;100841.59;4151939;28;20036;-72
2021/11/29 05:18:39;;;;;;;8.93;4.90;;;5.30;99.90;;;4.92;100.00;100830.78;4152830;28;20026;-72
2021/11/29 05:20:40;;;;;;;6.07;3.78;;;5.30;99.90;;;4.90;100.00;100843.13;4151820;28;20037;-72
2021/11/29 05:22:41;;;;;;;4.50;3.67;;;5.20;99.90;;;4.89;100.00;100828.41;4167915;28;20025;-72
2021/11/29 05:24:42;;;;;;;5.53;3.80;;;5.10;99.90;;;4.91;100.00;100830.91;4151746;28;20041;-72
2021/11/29 05:26:43;;;;;;;5.30;3.70;;;5.20;99.90;;;4.98;100.00;100835.56;4151566;28;20498;-72
2021/11/29 05:28:44;;;;;;;4.60;3.20;;;5.20;99.90;;;4.89;100.00;100841.47;4140921;28;20110;-72
2021/11/29 05:30:45;;;;;;;5.55;3.70;;;5.30;99.90;;;4.89;100.00;100836.25;4152708;28;20022;-72
2021/11/29 05:32:46;;;;;;;5.63;3.85;;;5.20;99.90;;;4.92;100.00;100843.88;4152705;28;20037;-72
2021/11/29 05:34:47;;;;;;;5.00;4.00;;;5.20;99.90;;;4.93;100.00;100847.28;4152616;28;20022;-72
2021/11/29 05:36:48;;;;;;;7.07;3.92;;;5.20;99.90;;;4.85;100.00;100858.34;4152785;28;20037;-72
2021/11/29 05:38:49;;;;;;;4.85;3.10;;;5.20;99.90;;;4.81;100.00;100848.22;4151177;28;20025;-72
2021/11/29 05:40:50;;;;;;;3.67;3.33;;;5.20;99.90;;;4.88;100.00;100870.34;4152659;28;20029;-72
2021/11/29 05:42:51;;;;;;;6.45;4.00;;;5.20;99.90;;;4.78;100.00;100869.38;4152474;28;20080;-72
2021/11/29 05:44:52;;;;;;;7.75;3.65;;;5.20;99.90;;;4.90;100.00;100876.25;4134982;28;20038;-72
2021/11/29 05:46:53;;;;;;;4.10;3.47;;;5.20;99.90;;;4.91;100.00;100883.16;4152490;28;20097;-72
2021/11/29 05:48:56;;;;;;;5.40;3.90;;;5.20;99.90;;;4.84;100.00;100884.56;4152501;28;20022;-72
2021/11/29 05:51:00;;;;;;;3.67;3.28;;;5.20;99.90;;;4.84;100.00;100884.56;4151171;28;20061;-72
2021/11/29 05:53:01;;;;;;;7.78;3.75;;;5.20;99.90;;;4.90;100.00;100889.34;4152498;28;20022;-72
2021/11/29 05:55:05;;;;;;;5.03;3.50;;;5.20;99.90;;;4.65;100.00;100879.91;4152487;28;20416;-72
2021/11/29 05:57:06;;;;;;;5.53;3.80;;;5.10;99.90;;;4.76;100.00;100902.63;4151187;28;20038;-72
2021/11/29 05:59:07;;;;;;;4.20;3.17;;;5.10;99.90;;;4.56;100.00;100898.06;4152222;28;20057;-72
2021/11/29 06:01:08;;;;;;;6.20;3.80;;;5.00;99.90;;;4.66;100.00;100893.81;4134942;28;20030;-72
2021/11/29 06:03:10;;;;;;;4.80;3.92;;;5.10;99.90;;;4.64;100.00;100893.09;4151065;28;20468;-72
2021/11/29 06:05:12;;;;;;;3.92;3.53;;;5.00;99.90;;;4.75;100.00;100904.41;4151135;28;20123;-72
2021/11/29 06:07:13;;;;;;;5.78;4.10;;;5.10;99.90;;;4.71;100.00;100904.75;4166221;28;20029;-72
2021/11/29 06:09:14;;;;;;;7.38;4.00;;;5.00;99.90;;;4.78;100.00;100908.59;4140114;28;20034;-72
2021/11/29 06:11:15;;;;;;;6.93;3.83;;;5.00;99.90;;;4.69;100.00;100902.25;4152293;28;20072;-72
2021/11/29 06:13:16;;;;;;;6.35;4.45;;;5.00;99.90;;;4.72;100.00;100907.22;4152214;28;20485;-72
2021/11/29 06:15:18;;;;;;;4.68;3.35;;;5.00;99.90;;;4.69;100.00;100901.44;4150900;28;20065;-72
2021/11/29 06:17:19;;;;;;;5.82;4.00;;;5.00;99.90;;;4.61;100.00;100908.97;4152301;28;20404;-72
2021/11/29 06:19:20;;;;;;;6.70;4.15;;;5.00;99.90;;;4.50;100.00;100907.19;4152198;28;20052;-72
2021/11/29 06:21:21;;;;;;;5.07;3.80;;;4.90;99.90;;;4.59;100.00;100916.94;4150930;28;20040;-72
2021/11/29 06:23:22;;;;;;;8.00;3.70;;;4.90;99.90;;;4.62;100.00;100914.09;4150504;28;20037;-72
2021/11/29 06:25:24;;;;;;;10.23;4.13;;;4.90;99.90;;;4.54;100.00;100916.44;4152067;28;20088;-72
2021/11/29 06:27:25;;;;;;;4.90;3.83;;;4.90;99.90;;;4.62;100.00;100918.50;4150890;28;20060;-72
2021/11/29 06:29:26;;;;;;;8.73;3.75;;;4.90;99.90;;;4.48;100.00;100925.56;4144194;28;20128;-72
2021/11/29 06:31:27;;;;;;;8.25;4.00;;;4.90;99.90;;;4.41;100.00;100936.59;4151979;28;20014;-72
2021/11/29 06:33:28;;;;;;;6.90;4.05;;;4.80;99.90;;;4.48;100.00;100930.78;4150867;28;20108;-72
2021/11/29 06:35:29;;;;;;;4.50;3.38;;;4.80;99.90;;;4.46;100.00;100922.25;4152032;28;20057;-72
2021/11/29 06:37:31;;;;;;;7.70;3.85;;;4.90;99.90;;;4.51;100.00;100936.75;4153839;28;20037;-72
2021/11/29 06:39:32;;;;;;;5.25;3.70;;;4.80;99.90;;;4.56;100.00;100947.69;4170093;28;20030;-72
2021/11/29 06:41:33;;;;;;;7.97;3.40;;;4.90;99.90;;;4.42;100.00;100946.09;4154030;28;20037;-72
2021/11/29 06:43:34;;;;;;;4.75;3.45;;;4.90;99.90;;;4.35;100.00;100952.69;4153965;28;20064;-72
2021/11/29 06:45:35;;;;;;;4.97;3.40;;;4.80;99.90;;;4.43;100.00;100968.63;4155128;28;20366;-72
2021/11/29 06:47:40;;;;;;;4.25;3.63;;;4.80;99.90;;;4.33;100.00;100967.66;4155036;28;20511;-72
2021/11/29 06:49:41;;;;;;;4.13;3.30;;;4.70;99.90;;;4.29;100.00;100972.25;4154937;28;20551;-72
2021/11/29 06:51:42;;;;;;;7.90;4.40;;;4.70;99.90;;;4.31;100.00;100964.31;4155248;28;20026;-72
2021/11/29 06:53:43;;;;;;;5.88;3.42;;;4.70;99.90;;;4.36;100.00;100973.47;4153739;28;20022;-72
2021/11/29 06:55:46;;;;;;;7.55;4.10;;;4.70;99.90;;;4.28;100.00;100991.47;4153935;28;20100;-72
2021/11/29 06:57:48;;;;;;;8.35;3.30;;;4.70;99.90;;;4.34;100.00;100993.63;4155145;28;20037;-72
2021/11/29 06:59:49;;;;;;;5.13;3.67;;;4.90;99.90;;;4.33;100.00;100999.78;4154778;28;20479;-72
2021/11/29 07:01:51;;;;;;;5.07;4.55;;;4.60;99.90;;;4.30;100.00;101004.44;4154973;28;20026;-72
2021/11/29 07:03:52;;;;;;;6.38;4.75;;;4.60;99.90;;;4.09;100.00;101001.53;4154619;28;20088;-71
2021/11/29 07:05:53;;;;;;;5.07;3.50;;;4.60;99.90;;;4.04;100.00;101008.88;4153678;28;20037;-72
2021/11/29 07:07:56;;;;;;;7.13;4.53;;;4.60;99.90;;;4.13;100.00;101020.44;4146797;28;20105;-72
2021/11/29 07:09:56;;;;;;;4.75;3.63;;;4.50;99.90;;;4.06;100.00;101027.84;4153550;28;20470;-72
2021/11/29 07:11:57;;;;;;;3.97;3.65;;;4.40;99.90;;;4.08;100.00;101028.59;4153538;28;20033;-72
2021/11/29 07:13:58;;;;;;;5.07;3.58;;;4.50;99.90;;;4.06;100.00;101037.50;4153380;28;20033;-72
2021/11/29 07:16:00;;;;;;;9.23;4.32;;;4.50;99.90;;;4.19;100.00;101039.13;4153500;28;20025;-72
2021/11/29 07:18:00;;;;;;;4.95;3.45;;;4.10;99.90;;;4.08;100.00;101041.66;4169693;28;20064;-72
2021/11/29 07:20:03;;;;;;;4.95;3.85;;;4.50;99.90;;;4.19;100.00;101049.56;4154606;28;20030;-72
2021/11/29 07:22:08;;;;;;;4.07;3.33;;;4.40;99.90;;;4.20;100.00;101050.41;4153165;28;20112;-72
2021/11/29 07:24:09;;;;;;;8.50;4.18;;;4.90;99.90;;;3.97;100.00;101062.47;4144872;28;20068;-72
2021/11/29 07:26:10;;;;;;;5.90;3.63;;;4.40;99.90;;;3.89;100.00;101059.53;4154639;28;20034;-72
2021/11/29 07:28:11;;;;;;;5.97;4.10;;;4.40;99.90;;;3.87;100.00;101051.81;4154180;28;20022;-71
2021/11/29 07:30:16;;;;;;;6.38;3.35;;;4.30;99.90;;;4.20;100.00;101066.91;4153025;28;20109;-72
2021/11/29 07:32:17;;;;;;;4.78;3.92;;;4.40;99.90;;;4.13;100.00;101068.25;4169667;28;20104;-71
2021/11/29 07:34:18;;;;;;;4.40;3.60;;;4.40;99.90;;;4.09;100.00;101068.59;4153362;28;20437;-72
2021/11/29 07:36:19;;;;;;;4.85;3.65;;;4.40;99.90;;;4.02;100.00;101077.78;4153102;28;20022;-72
2021/11/29 07:38:20;;;;;;;5.80;4.53;;;4.40;99.90;;;3.85;100.00;101086.78;4154299;28;20044;-71
2021/11/29 07:40:28;;;;;;;4.53;4.00;;;4.30;99.90;;;3.79;100.00;101080.19;4153273;28;20477;-72
2021/11/29 07:42:30;;;;;;;5.70;4.25;;;4.30;99.90;;;3.77;100.00;101091.66;4163028;28;20029;-72
2021/11/29 07:44:30;;;;;;;5.10;3.92;;;4.20;99.90;;;3.68;100.00;101089.69;4152953;28;20026;-72
2021/11/29 07:46:32;;;;;;;6.88;4.55;;;4.20;99.90;;;3.84;100.00;101098.16;4186122;28;20109;-72
2021/11/29 07:48:33;;;;;;;4.10;3.70;;;4.20;99.90;;;3.84;100.00;101096.38;4152118;28;20026;-72
2021/11/29 07:50:34;;;;;;;6.65;4.05;;;4.20;99.90;;;3.75;100.00;101109.22;4154517;28;20370;-72
2021/11/29 07:52:35;;;;;;;9.15;4.40;;;4.30;99.90;;;3.86;100.00;101115.38;4152930;28;20087;-72
2021/11/29 07:54:36;;;;;;;9.20;4.45;;;4.30;99.90;;;3.76;100.00;101109.09;4140741;28;20034;-72
2021/11/29 07:56:37;;;;;;;8.55;5.95;;;4.30;99.90;;;3.72;100.00;101130.28;4152721;28;20022;-72
2021/11/29 07:58:38;;;;;;;5.70;3.67;;;4.40;99.90;;;3.36;100.00;101133.56;4154537;28;20061;-78
2021/11/29 08:00:39;;;;;;;7.18;4.20;;;4.40;99.90;;;3.64;100.00;101135.19;4155319;28;20042;-80
2021/11/29 08:02:40;;;;;;;6.90;5.22;;;4.40;99.90;;;3.86;100.00;101132.78;4154185;28;20088;-80
2021/11/29 08:04:42;;;;;;;8.02;4.60;;;4.50;99.90;;;4.01;100.00;101150.03;4153832;28;20382;-78
2021/11/29 08:06:43;;;;;;;5.05;4.55;;;4.60;99.90;;;4.09;100.00;101149.53;4154076;28;20045;-80
2021/11/29 08:08:45;;;;;;;8.07;4.07;;;4.60;99.90;;;4.07;100.00;101154.84;4170195;28;20093;-79
2021/11/29 08:10:46;;;;;;;4.82;4.10;;;4.70;99.90;;;4.03;100.00;101174.28;4154318;28;20120;-80
2021/11/29 08:12:48;;;;;;;5.32;4.30;;;4.70;99.90;;;4.00;100.00;101164.03;4155372;28;20021;-80
2021/11/29 08:14:53;;;;;;;9.10;5.07;;;4.80;99.90;;;4.11;100.00;101182.41;4155054;28;20505;-81
2021/11/29 08:16:54;;;;;;;9.02;4.97;;;4.70;99.90;;;4.11;100.00;101182.41;4155058;28;20037;-81
2021/11/29 08:18:55;;;;;;;8.57;5.43;;;4.80;99.90;;;4.12;100.00;101186.66;4155370;28;20029;-79
2021/11/29 08:20:56;;;;;;;7.45;5.43;;;4.80;99.90;;;4.22;100.00;101184.28;4155019;28;20041;-80
2021/11/29 08:22:57;;;;;;;8.65;6.32;;;4.90;99.90;;;4.29;100.00;101185.53;4154998;28;20029;-81
2021/11/29 08:24:59;;;;;;;8.50;5.90;;;4.90;99.90;;;4.14;100.00;101191.81;4154631;28;20080;-81
2021/11/29 08:27:00;;;;;;;8.57;5.97;;;4.90;99.90;;;4.26;100.00;101199.66;4153613;28;20026;-81
2021/11/29 08:29:01;;;;;;;6.90;6.20;;;5.00;99.90;;;4.19;100.00;101200.16;4153375;28;20026;-74
2021/11/29 08:31:03;;;;;;;6.65;5.95;;;4.90;99.90;;;4.24;100.00;101209.34;4154238;28;20105;-74